createdAt,value
2018-07-02T00:00:20.248Z,45.00
2018-07-02T00:02:49.445Z,44.90
2018-07-02T00:05:19.704Z,44.80
2018-07-02T00:07:48.952Z,44.50
2018-07-02T00:10:18.132Z,44.60
2018-07-02T00:12:47.437Z,44.70
2018-07-02T00:15:16.636Z,44.70
2018-07-02T00:17:45.960Z,45.00
2018-07-02T00:20:15.191Z,45.30
2018-07-02T00:22:44.487Z,45.20
2018-07-02T00:25:13.928Z,45.40
2018-07-02T00:27:43.111Z,45.40
2018-07-02T00:30:12.416Z,46.40
2018-07-02T00:32:42.119Z,46.10
2018-07-02T00:35:11.751Z,45.90
2018-07-02T00:37:41.403Z,46.00
2018-07-02T00:40:10.579Z,46.20
2018-07-02T00:42:40.214Z,47.30
2018-07-02T00:45:09.408Z,46.90
2018-07-02T00:47:38.757Z,47.50
2018-07-02T00:50:08.229Z,48.20
2018-07-02T00:52:37.579Z,48.20
2018-07-02T00:55:06.865Z,48.90
2018-07-02T00:57:36.431Z,48.90
2018-07-02T01:00:14.195Z,48.20
2018-07-02T01:02:43.476Z,48.70
2018-07-02T01:05:13.391Z,49.30
2018-07-02T01:07:44.065Z,49.90
2018-07-02T01:10:13.550Z,50.00
2018-07-02T01:12:43.234Z,50.00
2018-07-02T01:15:12.655Z,50.10
2018-07-02T01:20:10.966Z,50.50
2018-07-02T01:22:40.239Z,50.60
2018-07-02T01:25:09.419Z,51.10
2018-07-02T01:27:38.603Z,50.40
2018-07-02T01:30:07.831Z,50.50
2018-07-02T01:32:37.067Z,50.00
2018-07-02T01:35:06.270Z,51.20
2018-07-02T01:37:35.441Z,49.20
2018-07-02T01:45:02.413Z,48.70
2018-07-02T01:50:00.519Z,48.90
2018-07-02T01:52:29.699Z,49.70
2018-07-02T01:54:58.880Z,50.60
2018-07-02T01:57:28.245Z,51.00
2018-07-02T01:59:57.682Z,50.90
2018-07-02T02:02:26.871Z,51.70
2018-07-02T02:04:56.042Z,51.70
2018-07-02T02:07:25.240Z,51.80
2018-07-02T02:09:54.413Z,52.40
2018-07-02T02:12:23.591Z,51.90
2018-07-02T02:17:21.671Z,52.60
2018-07-02T02:22:19.889Z,53.10
2018-07-02T02:24:49.363Z,52.30
2018-07-02T02:34:45.568Z,53.50
2018-07-02T02:37:15.131Z,53.50
2018-07-02T02:39:44.789Z,52.80
2018-07-02T02:42:14.198Z,53.60
2018-07-02T02:44:43.968Z,53.00
2018-07-02T02:47:13.161Z,53.60
2018-07-02T02:49:42.338Z,52.90
2018-07-02T02:52:11.574Z,53.70
2018-07-02T02:54:43.851Z,52.60
2018-07-02T02:57:13.540Z,54.00
2018-07-02T02:59:43.158Z,53.40
2018-07-02T03:02:12.583Z,54.30
2018-07-02T03:04:41.831Z,55.00
2018-07-02T03:07:11.132Z,54.80
2018-07-02T03:09:40.339Z,54.50
2018-07-02T03:12:09.479Z,54.70
2018-07-02T03:14:38.687Z,55.20
2018-07-02T03:17:07.896Z,54.10
2018-07-02T03:19:37.055Z,54.70
2018-07-02T03:22:06.763Z,54.90
2018-07-02T03:24:36.111Z,53.90
2018-07-02T03:27:05.349Z,55.00
2018-07-02T03:32:03.428Z,55.70
2018-07-02T03:34:32.599Z,55.50
2018-07-02T03:37:01.801Z,56.20
2018-07-02T03:39:30.988Z,56.00
2018-07-02T03:42:00.343Z,56.30
2018-07-02T03:44:29.544Z,57.20
2018-07-02T03:46:58.748Z,57.30
2018-07-02T03:49:27.909Z,58.40
2018-07-02T03:51:59.031Z,58.70
2018-07-02T03:54:28.178Z,58.50
2018-07-02T03:56:57.377Z,58.60
2018-07-02T03:59:26.605Z,58.80
2018-07-02T04:01:55.807Z,58.80
2018-07-02T04:04:25.004Z,58.80
2018-07-02T04:06:54.264Z,58.70
2018-07-02T04:09:23.556Z,59.20
2018-07-02T04:14:22.065Z,59.20
2018-07-02T04:19:20.183Z,59.40
2018-07-02T04:21:49.732Z,59.50
2018-07-02T04:24:19.055Z,59.30
2018-07-02T04:26:48.651Z,59.70
2018-07-02T04:31:47.114Z,59.80
2018-07-02T04:34:16.279Z,59.40
2018-07-02T04:36:45.457Z,59.10
2018-07-02T04:39:14.877Z,58.90
2018-07-02T04:41:44.208Z,59.00
2018-07-02T04:44:13.600Z,58.90
2018-07-02T04:46:42.811Z,58.80
2018-07-02T04:49:11.968Z,58.60
2018-07-02T04:51:41.175Z,58.90
2018-07-02T04:54:10.363Z,58.50
2018-07-02T04:56:39.576Z,59.20
2018-07-02T04:59:08.787Z,59.10
2018-07-02T05:01:37.967Z,59.40
2018-07-02T05:04:07.328Z,59.00
2018-07-02T05:06:36.631Z,58.60
2018-07-02T05:09:07.980Z,57.70
2018-07-02T05:14:06.174Z,57.50
2018-07-02T05:16:35.395Z,57.30
2018-07-02T05:19:04.700Z,57.30
2018-07-02T05:21:34.155Z,57.20
2018-07-02T05:24:03.383Z,56.90
2018-07-02T05:26:32.539Z,57.60
2018-07-02T05:29:01.836Z,57.20
2018-07-02T05:31:31.056Z,57.30
2018-07-02T05:34:00.324Z,57.60
2018-07-02T05:36:29.515Z,57.40
2018-07-02T05:38:58.802Z,57.00
2018-07-02T05:41:27.973Z,56.50
2018-07-02T05:43:57.148Z,56.90
2018-07-02T05:46:26.284Z,56.20
2018-07-02T05:48:55.467Z,55.50
2018-07-02T05:51:24.935Z,54.90
2018-07-02T05:53:54.102Z,55.20
2018-07-02T05:56:23.463Z,55.10
2018-07-02T06:01:21.912Z,54.90
2018-07-02T06:03:51.680Z,55.10
2018-07-02T06:06:20.877Z,54.90
2018-07-02T06:08:51.064Z,55.00
2018-07-02T06:11:20.313Z,55.00
2018-07-02T06:13:50.436Z,55.30
2018-07-02T06:16:19.645Z,54.90
2018-07-02T06:18:49.937Z,55.70
2018-07-02T06:21:19.913Z,55.20
2018-07-02T06:23:50.244Z,55.10
2018-07-02T06:26:19.583Z,55.10
2018-07-02T06:28:49.965Z,55.30
2018-07-02T06:31:19.243Z,55.10
2018-07-02T06:33:48.493Z,54.50
2018-07-02T06:36:18.012Z,55.00
2018-07-02T06:38:47.875Z,53.10
2018-07-02T06:41:17.043Z,52.40
2018-07-02T06:43:46.291Z,50.90
2018-07-02T06:46:15.576Z,50.90
2018-07-02T06:48:45.021Z,52.10
2018-07-02T06:51:14.267Z,52.30
2018-07-02T06:53:44.085Z,52.10
2018-07-02T06:56:13.278Z,52.30
2018-07-02T06:58:42.904Z,51.40
2018-07-02T07:01:12.066Z,52.10
2018-07-02T07:03:41.488Z,52.10
2018-07-02T07:06:11.324Z,51.90
2018-07-02T07:11:09.451Z,52.10
2018-07-02T07:13:39.198Z,52.10
2018-07-02T07:16:08.499Z,51.80
2018-07-02T07:18:37.748Z,51.80
2018-07-02T07:21:08.056Z,51.50
2018-07-02T07:23:37.251Z,50.90
2018-07-02T07:26:06.624Z,51.90
2018-07-02T07:28:35.809Z,52.30
2018-07-02T07:31:05.158Z,50.20
2018-07-02T07:33:34.348Z,51.40
2018-07-02T07:36:03.676Z,50.70
2018-07-02T07:38:33.346Z,50.40
2018-07-02T07:41:02.708Z,51.60
2018-07-02T07:43:32.790Z,51.60
2018-07-02T07:46:02.270Z,50.40
2018-07-02T07:48:31.863Z,50.30
2018-07-02T07:51:01.300Z,49.90
2018-07-02T07:53:30.767Z,50.00
2018-07-02T07:56:00.130Z,49.70
2018-07-02T07:58:29.731Z,49.40
2018-07-02T08:00:59.050Z,48.90
2018-07-02T08:03:28.394Z,49.20
2018-07-02T08:05:57.675Z,49.20
2018-07-02T08:08:27.079Z,49.60
2018-07-02T08:10:56.473Z,48.70
2018-07-02T08:13:25.695Z,47.90
2018-07-02T08:15:55.487Z,48.20
2018-07-02T08:18:24.817Z,47.80
2018-07-02T08:20:54.619Z,48.40
2018-07-02T08:23:23.940Z,48.00
2018-07-02T08:25:53.615Z,47.00
2018-07-02T08:28:22.804Z,47.20
2018-07-02T08:30:52.737Z,47.10
2018-07-02T08:33:22.028Z,48.40
2018-07-02T08:35:51.187Z,47.00
2018-07-02T08:38:20.674Z,47.40
2018-07-02T08:40:50.178Z,47.00
2018-07-02T08:43:19.583Z,45.20
2018-07-02T08:45:48.803Z,45.50
2018-07-02T08:48:18.084Z,46.50
2018-07-02T08:50:47.275Z,45.20
2018-07-02T08:53:16.531Z,45.50
2018-07-02T08:55:45.876Z,45.50
2018-07-02T08:58:15.538Z,46.60
2018-07-02T09:00:44.848Z,45.70
2018-07-02T09:03:14.976Z,46.20
2018-07-02T09:05:44.232Z,46.30
2018-07-02T09:08:13.394Z,44.20
2018-07-02T09:10:42.647Z,43.20
2018-07-02T09:13:14.847Z,44.60
2018-07-02T09:15:44.041Z,44.80
2018-07-02T09:18:13.216Z,45.10
2018-07-02T09:20:42.699Z,43.80
2018-07-02T09:23:11.920Z,44.20
2018-07-02T09:25:41.343Z,44.40
2018-07-02T09:28:10.564Z,44.90
2018-07-02T09:30:39.835Z,43.50
2018-07-02T09:33:09.318Z,43.60
2018-07-02T09:35:38.533Z,43.40
2018-07-02T09:38:07.735Z,43.70
2018-07-02T09:40:36.966Z,44.10
2018-07-02T09:43:06.234Z,43.70
2018-07-02T09:45:35.535Z,42.60
2018-07-02T09:48:04.886Z,43.40
2018-07-02T09:50:34.134Z,43.10
2018-07-02T09:53:03.349Z,41.50
2018-07-02T09:55:32.532Z,42.70
2018-07-02T09:58:02.124Z,43.20
2018-07-02T10:00:33.034Z,43.00
2018-07-02T10:03:02.219Z,41.80
2018-07-02T10:05:31.681Z,41.90
2018-07-02T10:08:01.118Z,40.30
2018-07-02T10:10:30.463Z,41.00
2018-07-02T10:12:59.721Z,41.20
2018-07-02T10:15:30.020Z,41.30
2018-07-02T10:17:59.762Z,39.80
2018-07-02T10:20:29.422Z,41.00
2018-07-02T10:25:27.560Z,39.50
2018-07-02T10:27:57.112Z,39.90
2018-07-02T10:30:26.605Z,40.00
2018-07-02T10:32:56.029Z,39.00
2018-07-02T10:35:25.307Z,40.70
2018-07-02T10:37:54.521Z,39.30
2018-07-02T10:40:23.852Z,39.80
2018-07-02T10:42:53.323Z,40.00
2018-07-02T10:45:22.508Z,39.70
2018-07-02T10:47:51.936Z,40.40
2018-07-02T10:50:23.048Z,39.10
2018-07-02T10:52:52.444Z,39.60
2018-07-02T10:55:21.851Z,40.30
2018-07-02T10:57:51.068Z,39.20
2018-07-02T11:00:20.307Z,38.20
2018-07-02T11:02:49.628Z,38.50
2018-07-02T11:05:18.810Z,38.80
2018-07-02T11:07:48.211Z,39.50
2018-07-02T11:10:17.439Z,40.10
2018-07-02T11:12:48.671Z,38.30
2018-07-02T11:15:18.135Z,39.90
2018-07-02T11:17:47.530Z,40.10
2018-07-02T11:20:16.831Z,40.70
2018-07-02T11:22:46.033Z,39.10
2018-07-02T11:25:15.203Z,40.10
2018-07-02T11:27:44.435Z,39.70
2018-07-02T11:30:13.680Z,39.30
2018-07-02T11:32:43.090Z,39.00
2018-07-02T11:35:12.368Z,38.80
2018-07-02T11:37:41.598Z,40.60
2018-07-02T11:40:10.915Z,37.80
2018-07-02T11:42:43.422Z,39.50
2018-07-02T11:45:12.753Z,39.20
2018-07-02T11:47:42.239Z,38.00
2018-07-02T11:50:11.504Z,38.10
2018-07-02T11:52:41.146Z,38.50
2018-07-02T11:55:10.591Z,40.00
2018-07-02T11:57:40.400Z,38.70
2018-07-02T12:00:10.272Z,38.50
2018-07-02T12:02:40.054Z,39.10
2018-07-02T12:05:09.350Z,38.60
2018-07-02T12:07:38.558Z,38.10
2018-07-02T12:10:07.768Z,38.30
2018-07-02T12:12:37.003Z,37.90
2018-07-02T12:15:06.441Z,38.10
2018-07-02T12:17:35.817Z,38.40
2018-07-02T12:20:05.413Z,39.00
2018-07-02T12:22:34.659Z,38.60
2018-07-02T12:25:03.901Z,39.40
2018-07-02T12:27:33.276Z,37.30
2018-07-02T12:30:03.246Z,37.80
2018-07-02T12:32:32.508Z,37.90
2018-07-02T12:35:01.797Z,38.20
2018-07-02T12:37:31.043Z,37.60
2018-07-02T12:40:00.760Z,36.60
2018-07-02T12:42:29.999Z,36.50
2018-07-02T12:44:59.690Z,36.20
2018-07-02T12:47:29.165Z,35.70
2018-07-02T12:49:58.929Z,36.30
2018-07-02T12:52:28.232Z,36.90
2018-07-02T12:54:57.696Z,36.80
2018-07-02T12:57:27.408Z,35.70
2018-07-02T12:59:56.713Z,36.50
2018-07-02T13:02:25.868Z,36.80
2018-07-02T13:04:55.728Z,37.40
2018-07-02T13:07:24.981Z,37.20
2018-07-02T13:09:54.336Z,36.60
2018-07-02T13:12:23.625Z,36.70
2018-07-02T13:14:53.671Z,36.30
2018-07-02T13:17:22.847Z,36.60
2018-07-02T13:19:52.101Z,36.60
2018-07-02T13:22:23.394Z,36.90
2018-07-02T13:24:52.909Z,36.00
2018-07-02T13:27:22.133Z,36.60
2018-07-02T13:29:51.508Z,36.90
2018-07-02T13:32:20.902Z,35.40
2018-07-02T13:34:50.890Z,36.90
2018-07-02T13:37:20.203Z,35.90
2018-07-02T13:42:18.835Z,36.70
2018-07-02T13:44:48.076Z,35.60
2018-07-02T13:47:17.419Z,35.70
2018-07-02T13:49:46.864Z,35.70
2018-07-02T13:52:16.142Z,35.70
2018-07-02T13:54:45.370Z,35.50
2018-07-02T13:57:14.723Z,35.10
2018-07-02T13:59:44.097Z,36.30
2018-07-02T14:02:13.423Z,35.80
2018-07-02T14:04:42.829Z,35.60
2018-07-02T14:07:12.902Z,34.90
2018-07-02T14:09:42.192Z,36.20
2018-07-02T14:12:11.367Z,35.40
2018-07-02T14:14:40.644Z,34.80
2018-07-02T14:17:10.192Z,36.20
2018-07-02T14:19:39.603Z,35.40
2018-07-02T14:22:09.289Z,35.10
2018-07-02T14:24:38.576Z,34.70
2018-07-02T14:27:07.863Z,35.20
2018-07-02T14:29:37.133Z,35.30
2018-07-02T14:32:07.024Z,34.90
2018-07-02T14:34:36.308Z,35.10
2018-07-02T14:37:05.781Z,34.90
2018-07-02T14:39:34.987Z,35.50
2018-07-02T14:42:04.757Z,34.70
2018-07-02T14:44:34.065Z,34.30
2018-07-02T14:47:03.715Z,34.50
2018-07-02T14:49:32.947Z,35.10
2018-07-02T14:52:02.481Z,35.70
2018-07-02T14:57:00.625Z,35.50
2018-07-02T14:59:29.879Z,34.60
2018-07-02T15:04:34.719Z,35.30
2018-07-02T15:07:04.651Z,35.10
2018-07-02T15:09:34.084Z,35.60
2018-07-02T15:12:03.620Z,35.40
2018-07-02T15:17:02.359Z,37.20
2018-07-02T15:19:31.600Z,36.00
2018-07-02T15:22:01.025Z,35.30
2018-07-02T15:24:30.791Z,35.30
2018-07-02T15:27:00.472Z,35.90
2018-07-02T15:29:29.764Z,36.20
2018-07-02T15:34:27.969Z,35.90
2018-07-02T15:36:57.313Z,36.70
2018-07-02T15:39:26.748Z,36.00
2018-07-02T15:41:56.007Z,36.20
2018-07-02T15:44:25.471Z,36.40
2018-07-02T15:46:54.899Z,36.60
2018-07-02T15:49:24.347Z,36.20
2018-07-02T15:51:53.715Z,36.10
2018-07-02T15:54:23.081Z,36.40
2018-07-02T15:56:52.267Z,36.20
2018-07-02T16:01:50.238Z,37.60
2018-07-02T16:04:19.476Z,37.10
2018-07-02T16:06:50.090Z,36.70
2018-07-02T16:09:19.339Z,36.20
2018-07-02T16:11:48.768Z,36.40
2018-07-02T16:14:18.047Z,36.20
2018-07-02T16:16:47.574Z,37.70
2018-07-02T16:19:16.842Z,36.50
2018-07-02T16:21:46.404Z,37.30
2018-07-02T16:24:15.611Z,36.50
2018-07-02T16:26:44.826Z,36.80
2018-07-02T16:29:14.152Z,36.70
2018-07-02T16:31:43.488Z,36.40
2018-07-02T16:36:41.568Z,36.70
2018-07-02T16:41:40.281Z,36.90
2018-07-02T16:44:09.749Z,37.70
2018-07-02T16:46:39.012Z,37.40
2018-07-02T16:49:08.404Z,36.90
2018-07-02T16:51:38.256Z,37.10
2018-07-02T16:54:07.669Z,37.20
2018-07-02T16:56:36.887Z,37.60
2018-07-02T16:59:07.392Z,37.30
2018-07-02T17:01:36.890Z,37.90
2018-07-02T17:04:06.988Z,37.20
2018-07-02T17:06:36.314Z,37.00
2018-07-02T17:09:09.551Z,37.20
2018-07-02T17:11:40.000Z,37.30
2018-07-02T17:14:09.849Z,37.30
2018-07-02T17:16:40.008Z,37.80
2018-07-02T17:21:38.588Z,37.10
2018-07-02T17:24:12.556Z,37.20
2018-07-02T17:26:42.148Z,37.60
2018-07-02T17:29:11.775Z,37.60
2018-07-02T17:31:41.298Z,37.60
2018-07-02T17:34:10.717Z,37.30
2018-07-02T17:36:40.028Z,37.20
2018-07-02T17:41:39.224Z,37.20
2018-07-02T17:44:08.972Z,37.90
2018-07-02T17:46:38.212Z,38.70
2018-07-02T17:49:07.946Z,38.20
2018-07-02T17:51:37.790Z,38.30
2018-07-02T17:54:07.589Z,38.80
2018-07-02T17:56:36.869Z,38.60
2018-07-02T17:59:06.689Z,39.20
2018-07-02T18:01:36.251Z,39.40
2018-07-02T18:04:06.088Z,38.40
2018-07-02T18:06:35.416Z,38.30
2018-07-02T18:09:08.635Z,38.00
2018-07-02T18:11:38.515Z,37.90
2018-07-02T18:14:13.671Z,38.20
2018-07-02T18:16:49.101Z,38.60
2018-07-02T18:19:24.202Z,39.00
2018-07-02T18:21:59.464Z,38.90
2018-07-02T18:24:35.019Z,38.80
2018-07-02T18:27:10.761Z,39.30
2018-07-02T18:29:46.088Z,39.80
2018-07-02T18:32:21.471Z,39.10
2018-07-02T18:34:56.699Z,39.10
2018-07-02T18:37:31.885Z,39.70
2018-07-02T18:40:08.469Z,40.00
2018-07-02T18:42:43.665Z,39.70
2018-07-02T18:45:19.228Z,39.50
2018-07-02T18:47:54.481Z,39.50
2018-07-02T18:50:30.032Z,40.00
2018-07-02T18:53:05.341Z,40.20
2018-07-02T18:55:41.684Z,40.30
2018-07-02T18:58:17.023Z,41.10
2018-07-02T19:00:52.308Z,41.10
2018-07-02T19:03:27.494Z,41.00
2018-07-02T19:06:02.928Z,41.50
2018-07-02T19:08:38.333Z,42.30
2018-07-02T19:11:13.528Z,41.20
2018-07-02T19:13:49.514Z,41.70
2018-07-02T19:16:24.953Z,41.50
2018-07-02T19:19:00.289Z,41.50
2018-07-02T19:21:35.643Z,41.80
2018-07-02T19:26:46.313Z,41.80
2018-07-02T19:29:21.553Z,41.70
2018-07-02T19:31:56.953Z,42.00
2018-07-02T19:34:32.067Z,41.80
2018-07-02T19:37:07.385Z,42.30
2018-07-02T19:39:42.835Z,42.50
2018-07-02T19:42:18.322Z,43.20
2018-07-02T19:44:54.301Z,43.10
2018-07-02T19:47:29.480Z,43.00
2018-07-02T19:52:39.594Z,43.50
2018-07-02T19:55:15.026Z,43.30
2018-07-02T19:57:50.395Z,44.40
2018-07-02T20:00:25.762Z,43.80
2018-07-02T20:03:02.223Z,43.60
2018-07-02T20:05:37.332Z,43.50
2018-07-02T20:08:13.049Z,43.70
2018-07-02T20:10:48.409Z,43.70
2018-07-02T20:13:23.917Z,43.90
2018-07-02T20:15:59.073Z,44.00
2018-07-02T20:18:34.294Z,44.30
2018-07-02T20:21:09.985Z,43.70
2018-07-02T20:23:45.725Z,43.80
2018-07-02T20:26:21.023Z,43.70
2018-07-02T20:28:56.262Z,43.50
2018-07-02T20:34:32.672Z,43.90
2018-07-02T20:37:08.189Z,43.90
2018-07-02T20:42:45.296Z,43.70
2018-07-02T20:45:21.463Z,43.80
2018-07-02T20:47:57.034Z,43.50
2018-07-02T20:53:32.430Z,44.10
2018-07-02T20:56:08.257Z,44.20
2018-07-02T21:01:19.713Z,44.00
2018-07-02T21:03:54.923Z,44.10
2018-07-02T21:06:30.960Z,44.00
2018-07-02T21:09:08.746Z,44.20
2018-07-02T21:11:44.163Z,43.70
2018-07-02T21:14:19.486Z,43.90
2018-07-02T21:16:55.156Z,43.60
2018-07-02T21:19:30.379Z,43.90
2018-07-02T21:22:06.093Z,43.50
2018-07-02T21:24:41.450Z,43.70
2018-07-02T21:27:17.245Z,43.40
2018-07-02T21:32:28.542Z,43.50
2018-07-02T21:35:04.096Z,43.20
2018-07-02T21:37:40.217Z,43.30
2018-07-02T21:40:15.795Z,43.40
2018-07-02T21:42:51.283Z,43.60
2018-07-02T21:45:26.987Z,43.60
2018-07-02T21:50:37.259Z,46.30
2018-07-02T21:53:12.713Z,45.50
2018-07-02T21:55:52.628Z,44.50
2018-07-02T21:58:27.979Z,43.50
2018-07-02T22:01:15.931Z,44.40
2018-07-02T22:03:51.871Z,43.10
2018-07-02T22:06:27.348Z,43.70
2018-07-02T22:09:03.430Z,43.30
2018-07-02T22:11:40.105Z,43.70
2018-07-02T22:14:15.517Z,43.30
2018-07-02T22:16:51.073Z,43.10
2018-07-02T22:19:26.480Z,42.20
2018-07-02T22:22:01.591Z,42.30
2018-07-02T22:24:36.708Z,42.10
2018-07-02T22:27:12.016Z,41.90
2018-07-02T22:29:47.604Z,42.20
2018-07-02T22:32:22.755Z,42.00
2018-07-02T22:34:58.725Z,42.20
2018-07-02T22:37:35.141Z,41.60
2018-07-02T22:40:10.336Z,42.00
2018-07-02T22:42:45.675Z,41.80
2018-07-02T22:45:20.816Z,42.10
2018-07-02T22:47:56.117Z,42.00
2018-07-02T22:50:31.326Z,41.90
2018-07-02T22:53:07.280Z,41.90
2018-07-02T22:55:54.045Z,42.10
2018-07-02T22:58:29.201Z,42.10
2018-07-02T23:01:04.604Z,42.10
2018-07-02T23:03:39.735Z,42.30
2018-07-02T23:06:15.000Z,42.30
2018-07-02T23:08:50.115Z,42.30
2018-07-02T23:11:25.714Z,42.30
2018-07-02T23:14:00.923Z,42.80
2018-07-02T23:16:36.044Z,42.90
2018-07-02T23:19:11.375Z,42.60
2018-07-02T23:21:46.634Z,42.30
2018-07-02T23:24:21.984Z,42.60
2018-07-02T23:26:57.240Z,42.60
2018-07-02T23:29:32.494Z,42.10
2018-07-02T23:32:07.719Z,42.40
2018-07-02T23:34:42.968Z,42.70
2018-07-02T23:37:18.339Z,42.80
2018-07-02T23:39:53.708Z,43.00
2018-07-02T23:42:28.858Z,43.10
2018-07-02T23:45:04.179Z,43.00
2018-07-02T23:50:15.288Z,43.30
2018-07-02T23:52:51.487Z,43.60
2018-07-02T23:55:26.823Z,43.40
2018-07-02T23:58:02.026Z,43.50
